Time;durP1;ratioP1;P1;durP2;ratioP2;P2;SDS_P1;SDS_P2;PMS_P1;PMS_P2;Temp;Humidity;BMP_temperature;BMP_pressure;BME280_temperature;BME280_humidity;BME280_pressure;Samples;Min_cycle;Max_cycle;Signal;HPM_P1;HPM_P2
2022/03/21 00:00:28;;;;;;;5.90;4.80;;;;;;;;;;5081310;28;20198;-61
2022/03/21 00:02:55;;;;;;;7.13;5.83;;;;;;;;;;5069545;28;20188;-60
2022/03/21 00:05:22;;;;;;;5.87;5.27;;;;;;;;;;5066009;28;20393;-59
2022/03/21 00:07:49;;;;;;;5.77;5.03;;;;;;;;;;5067454;28;20546;-59
2022/03/21 00:10:15;;;;;;;6.70;5.03;;;;;;;;;;5087506;28;20203;-59
2022/03/21 00:12:41;;;;;;;6.23;5.63;;;;;;;;;;5068804;28;20180;-60
2022/03/21 00:15:11;;;;;;;7.63;5.43;;;;;;;;;;5068479;28;20243;-59
2022/03/21 00:17:41;;;;;;;6.07;5.27;;;;;;;;;;5085825;28;20275;-61
2022/03/21 00:20:11;;;;;;;6.17;4.87;;;;;;;;;;5068369;28;20213;-60
2022/03/21 00:22:38;;;;;;;6.93;5.17;;;;;;;;;;5089554;28;20218;-59
2022/03/21 00:25:06;;;;;;;6.33;5.00;;;;;;;;;;5088955;28;20237;-59
2022/03/21 00:27:36;;;;;;;6.60;4.87;;;;;;;;;;5081512;28;20539;-59
2022/03/21 00:30:03;;;;;;;6.10;5.23;;;;;;;;;;5070741;28;20226;-59
2022/03/21 00:32:30;;;;;;;6.70;5.63;;;;;;;;;;5088540;28;20207;-59
2022/03/21 00:34:56;;;;;;;5.67;4.93;;;;;;;;;;5090964;28;20230;-59
2022/03/21 00:37:26;;;;;;;6.07;5.47;;;;;;;;;;5053087;28;20265;-59
2022/03/21 00:39:53;;;;;;;7.13;5.00;;;;;;;;;;5070901;28;20179;-59
2022/03/21 00:42:21;;;;;;;7.93;5.50;;;;;;;;;;5095551;28;20190;-59
2022/03/21 00:44:48;;;;;;;6.43;5.03;;;;;;;;;;5089020;28;20194;-60
2022/03/21 00:47:16;;;;;;;5.57;4.87;;;;;;;;;;5072000;28;20214;-60
2022/03/21 00:49:43;;;;;;;5.60;4.90;;;;;;;;;;5069516;28;20188;-60
2022/03/21 00:52:10;;;;;;;6.50;5.27;;;;;;;;;;5087462;28;20180;-60
2022/03/21 00:54:36;;;;;;;6.10;5.20;;;;;;;;;;5071129;28;20195;-60
2022/03/21 00:57:03;;;;;;;6.70;4.93;;;;;;;;;;5089894;28;20536;-60
2022/03/21 00:59:30;;;;;;;7.50;5.50;;;;;;;;;;5063729;28;20175;-60
2022/03/21 01:01:56;;;;;;;5.63;5.13;;;;;;;;;;5065249;28;20198;-58
2022/03/21 01:04:22;;;;;;;6.40;4.97;;;;;;;;;;5066312;28;20215;-59
2022/03/21 01:06:49;;;;;;;7.00;5.13;;;;;;;;;;5069057;28;20176;-59
2022/03/21 01:09:17;;;;;;;5.90;5.17;;;;;;;;;;5070986;28;20190;-59
2022/03/21 01:11:43;;;;;;;5.73;5.07;;;;;;;;;;5089130;28;20662;-59
2022/03/21 01:14:10;;;;;;;5.87;4.93;;;;;;;;;;5069960;28;20239;-59
2022/03/21 01:16:37;;;;;;;5.53;4.87;;;;;;;;;;5070866;28;20187;-59
2022/03/21 01:19:04;;;;;;;6.83;4.70;;;;;;;;;;5067322;28;20256;-59
2022/03/21 01:21:31;;;;;;;5.07;4.57;;;;;;;;;;5060150;28;20348;-59
2022/03/21 01:23:57;;;;;;;5.00;4.47;;;;;;;;;;5087119;28;20195;-59
2022/03/21 01:26:23;;;;;;;6.80;5.23;;;;;;;;;;5072020;28;20182;-58
2022/03/21 01:28:50;;;;;;;6.57;5.07;;;;;;;;;;5070088;28;20184;-59
2022/03/21 01:31:16;;;;;;;6.97;4.97;;;;;;;;;;5070772;28;20337;-59
2022/03/21 01:33:42;;;;;;;5.57;4.93;;;;;;;;;;5087018;28;20261;-59
2022/03/21 01:36:09;;;;;;;6.30;4.67;;;;;;;;;;5070290;28;20180;-59
2022/03/21 01:38:36;;;;;;;6.33;4.63;;;;;;;;;;5087113;28;20309;-59
2022/03/21 01:41:02;;;;;;;5.57;4.70;;;;;;;;;;5090284;28;20591;-59
2022/03/21 01:43:28;;;;;;;5.63;4.63;;;;;;;;;;5071247;28;20608;-60
2022/03/21 01:45:54;;;;;;;5.97;5.20;;;;;;;;;;5048273;28;20187;-60
2022/03/21 01:48:21;;;;;;;6.17;5.57;;;;;;;;;;5062758;28;20274;-60
2022/03/21 01:50:48;;;;;;;5.30;4.30;;;;;;;;;;5088056;28;20547;-60
2022/03/21 01:56:00;;;;;;;5.53;4.83;;;;;;;;;;5087659;28;20179;-60
2022/03/21 01:58:27;;;;;;;5.37;4.87;;;;;;;;;;5087089;28;20662;-60
2022/03/21 02:00:53;;;;;;;5.60;4.97;;;;;;;;;;5086585;28;20195;-60
2022/03/21 02:03:21;;;;;;;5.23;4.73;;;;;;;;;;5086535;28;20187;-60
2022/03/21 02:05:48;;;;;;;7.33;5.23;;;;;;;;;;5052605;28;20188;-60
2022/03/21 02:08:15;;;;;;;5.50;4.63;;;;;;;;;;5085767;28;20238;-59
2022/03/21 02:10:45;;;;;;;6.00;4.67;;;;;;;;;;5088820;28;20639;-60
2022/03/21 02:13:13;;;;;;;5.53;4.97;;;;;;;;;;5068013;28;20247;-60
2022/03/21 02:15:40;;;;;;;4.90;4.40;;;;;;;;;;5069846;28;20207;-60
2022/03/21 02:18:06;;;;;;;6.87;5.17;;;;;;;;;;5068170;28;20302;-59
2022/03/21 02:20:35;;;;;;;5.77;4.77;;;;;;;;;;5068652;28;20346;-59
2022/03/21 02:23:08;;;;;;;7.00;4.83;;;;;;;;;;5085020;28;20242;-59
2022/03/21 02:25:35;;;;;;;6.60;4.40;;;;;;;;;;5069137;28;20282;-59
2022/03/21 02:28:10;;;;;;;5.57;4.97;;;;;;;;;;5070923;28;20187;-59
2022/03/21 02:30:44;;;;;;;6.40;5.23;;;;;;;;;;5069335;28;20203;-61
2022/03/21 02:33:11;;;;;;;6.43;5.63;;;;;;;;;;5079581;28;20179;-60
2022/03/21 02:35:38;;;;;;;5.37;4.50;;;;;;;;;;5069150;28;20309;-60
2022/03/21 02:38:06;;;;;;;5.53;5.00;;;;;;;;;;5068148;28;20188;-60
2022/03/21 02:40:33;;;;;;;4.57;4.17;;;;;;;;;;5068966;28;20611;-60
2022/03/21 02:42:59;;;;;;;5.27;4.77;;;;;;;;;;5067817;28;20227;-60
2022/03/21 02:45:26;;;;;;;6.70;4.97;;;;;;;;;;5068297;28;20289;-60
2022/03/21 02:47:52;;;;;;;5.70;4.37;;;;;;;;;;5058051;28;20215;-59
2022/03/21 02:50:21;;;;;;;5.70;4.10;;;;;;;;;;5086228;28;20203;-59
2022/03/21 02:52:48;;;;;;;7.47;4.93;;;;;;;;;;5080685;28;20175;-59
2022/03/21 02:55:14;;;;;;;6.83;4.87;;;;;;;;;;5084548;28;20179;-60
2022/03/21 02:57:41;;;;;;;6.23;5.00;;;;;;;;;;5068967;28;20272;-60
2022/03/21 03:00:07;;;;;;;9.77;4.90;;;;;;;;;;5066579;28;20581;-59
2022/03/21 03:02:33;;;;;;;5.40;4.73;;;;;;;;;;5080996;28;20385;-60
2022/03/21 03:05:00;;;;;;;5.17;4.67;;;;;;;;;;5064218;28;20234;-59
2022/03/21 03:07:26;;;;;;;5.60;4.80;;;;;;;;;;5066928;28;20550;-59
2022/03/21 03:09:52;;;;;;;5.43;4.70;;;;;;;;;;5053178;28;20303;-60
2022/03/21 03:12:19;;;;;;;5.03;4.50;;;;;;;;;;5067677;28;20184;-60
2022/03/21 03:14:45;;;;;;;6.13;5.10;;;;;;;;;;5031011;28;20312;-60
2022/03/21 03:17:12;;;;;;;5.57;4.27;;;;;;;;;;5030936;28;20176;-59
2022/03/21 03:19:38;;;;;;;5.00;4.23;;;;;;;;;;5066546;28;20224;-59
2022/03/21 03:22:05;;;;;;;5.13;4.63;;;;;;;;;;5027457;28;20197;-60
2022/03/21 03:24:32;;;;;;;5.10;4.40;;;;;;;;;;5064815;28;20192;-60
2022/03/21 03:26:58;;;;;;;6.13;4.80;;;;;;;;;;5065180;28;20191;-59
2022/03/21 03:29:26;;;;;;;5.47;4.33;;;;;;;;;;5042385;28;20181;-59
2022/03/21 03:31:53;;;;;;;6.43;4.83;;;;;;;;;;5066377;28;20603;-59
2022/03/21 03:34:19;;;;;;;5.73;4.47;;;;;;;;;;5047671;28;20276;-60
2022/03/21 03:36:46;;;;;;;5.67;4.13;;;;;;;;;;5047311;28;20303;-60
2022/03/21 03:39:12;;;;;;;5.33;4.73;;;;;;;;;;5023632;28;20271;-59
2022/03/21 03:41:39;;;;;;;5.43;4.93;;;;;;;;;;5048545;28;20195;-59
2022/03/21 03:44:06;;;;;;;5.53;4.90;;;;;;;;;;5044964;28;20185;-60
2022/03/21 03:46:32;;;;;;;5.73;5.13;;;;;;;;;;5047960;28;20851;-60
2022/03/21 03:48:58;;;;;;;6.30;4.97;;;;;;;;;;5047970;28;20188;-59
2022/03/21 03:51:25;;;;;;;5.10;4.60;;;;;;;;;;5064847;28;20666;-60
2022/03/21 03:53:54;;;;;;;5.30;4.33;;;;;;;;;;5047332;28;20215;-60
2022/03/21 03:56:21;;;;;;;6.17;4.80;;;;;;;;;;5050977;28;20176;-60
2022/03/21 03:58:47;;;;;;;4.67;4.27;;;;;;;;;;5069856;28;20271;-60
2022/03/21 04:01:13;;;;;;;7.53;6.77;;;;;;;;;;5053207;28;20184;-60
2022/03/21 04:03:46;;;;;;;5.63;4.43;;;;;;;;;;5067669;28;20674;-60
2022/03/21 04:06:12;;;;;;;5.13;4.60;;;;;;;;;;5051058;28;20180;-60
2022/03/21 04:08:39;;;;;;;6.60;4.53;;;;;;;;;;5070489;28;20184;-59
2022/03/21 04:11:05;;;;;;;6.00;4.83;;;;;;;;;;5052192;28;20667;-59
2022/03/21 04:13:31;;;;;;;6.30;4.50;;;;;;;;;;5075897;28;20686;-60
2022/03/21 04:15:57;;;;;;;6.00;5.35;;;;;;;;;;5087373;28;20834;-60
2022/03/21 04:18:25;;;;;;;6.50;5.50;;;;;;;;;;5090496;28;20566;-59
2022/03/21 04:20:52;;;;;;;6.67;5.00;;;;;;;;;;5071997;28;20192;-60
2022/03/21 04:23:18;;;;;;;7.13;5.03;;;;;;;;;;5070113;28;20187;-60
2022/03/21 04:25:45;;;;;;;5.53;4.60;;;;;;;;;;5087953;28;20186;-59
2022/03/21 04:28:11;;;;;;;6.23;4.93;;;;;;;;;;5080918;28;20184;-59
2022/03/21 04:30:38;;;;;;;6.33;4.67;;;;;;;;;;5090270;28;20202;-60
2022/03/21 04:33:10;;;;;;;7.40;5.50;;;;;;;;;;5088665;28;20183;-60
2022/03/21 04:35:37;;;;;;;7.23;4.87;;;;;;;;;;5090732;28;20179;-59
2022/03/21 04:38:04;;;;;;;5.73;4.77;;;;;;;;;;5086610;28;20191;-59
2022/03/21 04:40:30;;;;;;;6.10;5.07;;;;;;;;;;5091065;28;20750;-59
2022/03/21 04:42:56;;;;;;;6.70;4.20;;;;;;;;;;5089454;28;20254;-60
2022/03/21 04:45:22;;;;;;;6.37;4.80;;;;;;;;;;5088838;28;20187;-60
2022/03/21 04:47:49;;;;;;;6.30;4.40;;;;;;;;;;5088654;28;20645;-60
2022/03/21 04:50:15;;;;;;;5.90;4.83;;;;;;;;;;5090757;28;20196;-60
2022/03/21 04:52:41;;;;;;;5.93;4.53;;;;;;;;;;5088311;28;20206;-60
2022/03/21 04:55:07;;;;;;;5.03;4.53;;;;;;;;;;5089615;28;20180;-60
2022/03/21 04:57:35;;;;;;;5.37;4.87;;;;;;;;;;5088705;28;20211;-60
2022/03/21 05:00:01;;;;;;;4.80;4.30;;;;;;;;;;5072630;28;20183;-60
2022/03/21 05:02:28;;;;;;;7.27;5.00;;;;;;;;;;5070595;28;20191;-59
2022/03/21 05:04:54;;;;;;;5.20;4.37;;;;;;;;;;5088855;28;20564;-60
2022/03/21 05:07:21;;;;;;;6.63;6.00;;;;;;;;;;5068097;28;20199;-60
2022/03/21 05:09:51;;;;;;;5.20;4.70;;;;;;;;;;5066777;28;20179;-59
2022/03/21 05:12:17;;;;;;;5.40;4.90;;;;;;;;;;5069071;28;20267;-60
2022/03/21 05:14:43;;;;;;;7.50;4.87;;;;;;;;;;5068430;28;20350;-60
2022/03/21 05:17:10;;;;;;;6.97;5.47;;;;;;;;;;5090153;28;20325;-60
2022/03/21 05:19:37;;;;;;;5.83;4.33;;;;;;;;;;5089389;28;20241;-60
2022/03/21 05:22:04;;;;;;;4.90;4.40;;;;;;;;;;5085998;28;20210;-60
2022/03/21 05:32:44;;;;;;;6.53;5.23;;;;;;;;;;5078836;28;20832;-60
2022/03/21 05:37:54;;;;;;;5.23;4.43;;;;;;;;;;5092034;28;20247;-60
2022/03/21 05:40:34;;;;;;;5.67;4.23;;;;;;;;;;5088803;28;20180;-60
2022/03/21 05:43:03;;;;;;;5.67;4.87;;;;;;;;;;5090365;28;20183;-60
2022/03/21 05:45:29;;;;;;;5.57;4.93;;;;;;;;;;5087481;28;20476;-60
2022/03/21 05:50:40;;;;;;;4.60;4.17;;;;;;;;;;5078773;28;20580;-60
2022/03/21 05:53:08;;;;;;;5.50;5.00;;;;;;;;;;5085444;28;20605;-60
2022/03/21 05:55:34;;;;;;;7.70;5.03;;;;;;;;;;5088653;28;20180;-60
2022/03/21 05:58:00;;;;;;;6.17;4.63;;;;;;;;;;5089631;28;20212;-60
2022/03/21 06:00:26;;;;;;;6.03;5.43;;;;;;;;;;5086379;28;20666;-61
2022/03/21 06:02:53;;;;;;;5.87;5.27;;;;;;;;;;5080942;28;20270;-60
2022/03/21 06:05:20;;;;;;;4.97;4.40;;;;;;;;;;5102854;28;20186;-60
2022/03/21 06:07:46;;;;;;;5.43;4.50;;;;;;;;;;5099171;28;20232;-60
2022/03/21 06:10:13;;;;;;;7.30;5.20;;;;;;;;;;5084476;28;20202;-61
2022/03/21 06:12:40;;;;;;;9.63;5.53;;;;;;;;;;5063180;28;20228;-61
2022/03/21 06:15:06;;;;;;;5.97;4.77;;;;;;;;;;5074011;28;20176;-61
2022/03/21 06:17:42;;;;;;;6.10;4.93;;;;;;;;;;5080877;28;20191;-61
2022/03/21 06:20:17;;;;;;;4.93;4.30;;;;;;;;;;5082644;28;20186;-59
2022/03/21 06:22:43;;;;;;;7.47;5.23;;;;;;;;;;5085186;28;20237;-59
2022/03/21 06:25:10;;;;;;;5.97;5.37;;;;;;;;;;5089947;28;20248;-59
2022/03/21 06:27:37;;;;;;;5.50;4.87;;;;;;;;;;5053337;28;20646;-62
2022/03/21 06:30:05;;;;;;;7.43;5.20;;;;;;;;;;5087729;28;20203;-59
2022/03/21 06:32:31;;;;;;;7.73;4.80;;;;;;;;;;5085986;28;20669;-61
2022/03/21 06:34:58;;;;;;;5.87;5.13;;;;;;;;;;5068134;28;20648;-61
2022/03/21 06:37:24;;;;;;;5.67;5.07;;;;;;;;;;5084990;28;20172;-61
2022/03/21 06:39:50;;;;;;;6.47;5.23;;;;;;;;;;5082718;28;20184;-61
2022/03/21 06:42:21;;;;;;;6.03;4.87;;;;;;;;;;5064412;28;20377;-61
2022/03/21 06:44:48;;;;;;;6.33;5.47;;;;;;;;;;5064736;28;20175;-59
2022/03/21 06:47:14;;;;;;;6.50;5.30;;;;;;;;;;5079021;28;20263;-59
2022/03/21 06:49:40;;;;;;;7.67;5.03;;;;;;;;;;5073084;28;20271;-61
2022/03/21 06:52:08;;;;;;;6.40;5.47;;;;;;;;;;5087444;28;20294;-60
2022/03/21 06:54:34;;;;;;;5.30;4.80;;;;;;;;;;5079419;28;20191;-61
2022/03/21 06:57:00;;;;;;;6.00;5.33;;;;;;;;;;5076176;28;20215;-61
2022/03/21 06:59:29;;;;;;;6.40;5.33;;;;;;;;;;5070241;28;20179;-60
2022/03/21 07:01:55;;;;;;;7.03;5.13;;;;;;;;;;5084725;28;20273;-61
2022/03/21 07:04:21;;;;;;;5.43;4.87;;;;;;;;;;5081226;28;20815;-63
2022/03/21 07:06:47;;;;;;;7.33;4.77;;;;;;;;;;5078241;28;20370;-60
2022/03/21 07:09:13;;;;;;;5.90;5.30;;;;;;;;;;5083590;28;20622;-61
2022/03/21 07:11:40;;;;;;;6.57;5.10;;;;;;;;;;5078369;28;20245;-61
2022/03/21 07:14:06;;;;;;;6.57;4.93;;;;;;;;;;5067705;28;20215;-60
2022/03/21 07:16:32;;;;;;;6.30;5.47;;;;;;;;;;5082613;28;20187;-58
2022/03/21 07:18:58;;;;;;;5.43;4.90;;;;;;;;;;5069695;28;20179;-59
2022/03/21 07:21:25;;;;;;;6.67;5.00;;;;;;;;;;5069783;28;20658;-60
2022/03/21 07:23:51;;;;;;;6.80;5.53;;;;;;;;;;5074643;28;20254;-60
2022/03/21 07:26:17;;;;;;;5.63;4.97;;;;;;;;;;5067481;28;20168;-60
2022/03/21 07:28:43;;;;;;;5.77;5.00;;;;;;;;;;5086973;28;20184;-59
2022/03/21 07:31:09;;;;;;;5.63;5.00;;;;;;;;;;5087045;28;20199;-60
2022/03/21 07:33:39;;;;;;;8.33;6.33;;;;;;;;;;5087561;28;20238;-60
2022/03/21 07:36:05;;;;;;;10.10;5.77;;;;;;;;;;5085393;28;20183;-60
2022/03/21 07:38:32;;;;;;;9.13;6.13;;;;;;;;;;5075845;28;20238;-60
2022/03/21 07:40:59;;;;;;;9.90;6.57;;;;;;;;;;5100844;28;20179;-60
2022/03/21 07:43:25;;;;;;;9.53;6.93;;;;;;;;;;5072736;28;20188;-60
2022/03/21 07:48:36;;;;;;;8.53;7.17;;;;;;;;;;5081915;28;20267;-59
2022/03/21 07:51:04;;;;;;;10.50;7.93;;;;;;;;;;5088940;28;20306;-60
2022/03/21 07:53:30;;;;;;;12.37;8.40;;;;;;;;;;5087133;28;20187;-60
2022/03/21 07:56:00;;;;;;;10.80;8.37;;;;;;;;;;5089247;28;20645;-61
2022/03/21 07:58:31;;;;;;;10.90;9.00;;;;;;;;;;5060618;28;20200;-61
2022/03/21 08:00:59;;;;;;;12.13;8.93;;;;;;;;;;5037975;28;20414;-61
2022/03/21 08:03:26;;;;;;;12.17;9.77;;;;;;;;;;5086412;28;20267;-61
2022/03/21 08:05:52;;;;;;;11.43;9.03;;;;;;;;;;5070442;28;20194;-61
2022/03/21 08:08:20;;;;;;;9.57;8.37;;;;;;;;;;5068011;28;20192;-60
2022/03/21 08:10:46;;;;;;;13.77;9.57;;;;;;;;;;5070057;28;20227;-60
2022/03/21 08:13:19;;;;;;;11.90;9.40;;;;;;;;;;5067514;28;20216;-60
2022/03/21 08:15:46;;;;;;;11.17;9.43;;;;;;;;;;5068512;28;20175;-60
2022/03/21 08:18:15;;;;;;;13.40;9.40;;;;;;;;;;5087091;28;20176;-60
2022/03/21 08:20:43;;;;;;;13.00;10.03;;;;;;;;;;5087769;28;20255;-60
2022/03/21 08:23:15;;;;;;;11.63;9.53;;;;;;;;;;5076728;28;20179;-60
2022/03/21 08:25:43;;;;;;;11.00;9.67;;;;;;;;;;5086761;28;20217;-61
2022/03/21 08:28:10;;;;;;;10.67;8.83;;;;;;;;;;5079616;28;20180;-60
2022/03/21 08:30:37;;;;;;;11.30;9.03;;;;;;;;;;5061604;28;20199;-60
2022/03/21 08:33:07;;;;;;;11.60;10.00;;;;;;;;;;5084644;28;20187;-60
2022/03/21 08:35:35;;;;;;;12.43;9.40;;;;;;;;;;5067368;28;20176;-60
2022/03/21 08:38:02;;;;;;;13.13;9.90;;;;;;;;;;5078351;28;20184;-61
2022/03/21 08:40:28;;;;;;;12.53;10.10;;;;;;;;;;5083975;28;20213;-60
2022/03/21 08:42:55;;;;;;;12.27;10.13;;;;;;;;;;5070643;28;20622;-60
2022/03/21 08:45:22;;;;;;;12.53;9.93;;;;;;;;;;5088100;28;20271;-60
2022/03/21 08:47:53;;;;;;;12.07;9.83;;;;;;;;;;5061860;28;20216;-60
2022/03/21 08:50:19;;;;;;;14.23;10.03;;;;;;;;;;5054345;28;20238;-59
2022/03/21 08:52:46;;;;;;;13.33;9.80;;;;;;;;;;5074865;28;20172;-61
2022/03/21 08:55:12;;;;;;;13.80;9.97;;;;;;;;;;5069985;28;20175;-59
2022/03/21 08:57:39;;;;;;;11.97;9.87;;;;;;;;;;5086210;28;20211;-59
2022/03/21 09:00:07;;;;;;;12.47;10.17;;;;;;;;;;5055424;28;20540;-59
2022/03/21 09:02:33;;;;;;;14.77;10.20;;;;;;;;;;5070545;28;20262;-59
2022/03/21 09:05:00;;;;;;;15.73;10.70;;;;;;;;;;5085601;28;20458;-59
2022/03/21 09:07:26;;;;;;;14.53;10.37;;;;;;;;;;5063488;28;20185;-60
2022/03/21 09:09:53;;;;;;;10.80;9.47;;;;;;;;;;5066346;28;20233;-60
2022/03/21 09:12:19;;;;;;;11.93;10.30;;;;;;;;;;5067907;28;20241;-60
2022/03/21 09:14:45;;;;;;;12.03;10.13;;;;;;;;;;5053404;28;20230;-60
2022/03/21 09:17:13;;;;;;;12.67;10.20;;;;;;;;;;5089174;28;20176;-60
2022/03/21 09:19:40;;;;;;;12.93;10.40;;;;;;;;;;5070379;28;20233;-60
2022/03/21 09:22:06;;;;;;;14.00;11.27;;;;;;;;;;5074054;28;20245;-60
2022/03/21 09:24:34;;;;;;;12.57;11.00;;;;;;;;;;5082984;28;20192;-61
2022/03/21 09:27:00;;;;;;;12.27;10.27;;;;;;;;;;5074149;28;20246;-60
2022/03/21 09:29:26;;;;;;;15.57;10.93;;;;;;;;;;5085906;28;20208;-60
2022/03/21 09:31:53;;;;;;;14.07;11.23;;;;;;;;;;5069328;28;20252;-60
2022/03/21 09:34:19;;;;;;;13.70;9.97;;;;;;;;;;5084587;28;20187;-60
2022/03/21 09:36:46;;;;;;;14.00;10.80;;;;;;;;;;5067488;28;20184;-60
2022/03/21 09:39:12;;;;;;;11.77;10.07;;;;;;;;;;5077000;28;20318;-61
2022/03/21 09:41:39;;;;;;;12.77;11.17;;;;;;;;;;5063284;28;20198;-59
2022/03/21 09:44:10;;;;;;;12.50;10.43;;;;;;;;;;5053417;28;20283;-59
2022/03/21 09:46:43;;;;;;;14.23;10.63;;;;;;;;;;5075724;28;20267;-59
2022/03/21 09:49:15;;;;;;;13.40;10.20;;;;;;;;;;5061548;28;20191;-59
2022/03/21 09:51:41;;;;;;;13.27;10.50;;;;;;;;;;5078795;28;20618;-59
2022/03/21 09:54:08;;;;;;;12.87;10.53;;;;;;;;;;5085841;28;20646;-59
2022/03/21 09:56:34;;;;;;;11.93;10.60;;;;;;;;;;5080508;28;20348;-58
2022/03/21 09:59:00;;;;;;;13.37;10.80;;;;;;;;;;5080228;28;20189;-60
2022/03/21 10:01:28;;;;;;;12.97;10.20;;;;;;;;;;5052824;28;20193;-60
2022/03/21 10:03:54;;;;;;;12.63;10.73;;;;;;;;;;5082042;28;20700;-59
2022/03/21 10:06:34;;;;;;;11.63;10.17;;;;;;;;;;5047764;28;20237;-59
2022/03/21 10:09:05;;;;;;;13.30;10.27;;;;;;;;;;5067849;28;20286;-59
2022/03/21 10:11:31;;;;;;;14.33;11.23;;;;;;;;;;5050650;28;20230;-59
2022/03/21 10:13:57;;;;;;;13.73;11.33;;;;;;;;;;5088436;28;20223;-59
2022/03/21 10:16:24;;;;;;;10.70;9.37;;;;;;;;;;5085183;28;20188;-59
2022/03/21 10:18:53;;;;;;;13.17;10.40;;;;;;;;;;5066308;28;20872;-59
2022/03/21 10:21:20;;;;;;;12.03;10.83;;;;;;;;;;5068522;28;20192;-59
2022/03/21 10:23:57;;;;;;;13.97;11.23;;;;;;;;;;5060076;28;20191;-58
2022/03/21 10:26:27;;;;;;;12.87;10.80;;;;;;;;;;5053519;28;20192;-59
2022/03/21 10:28:55;;;;;;;12.50;9.90;;;;;;;;;;5070210;28;20220;-59
2022/03/21 10:31:38;;;;;;;14.00;10.87;;;;;;;;;;5085272;28;20663;-60
2022/03/21 10:34:06;;;;;;;11.93;10.40;;;;;;;;;;5063309;28;20270;-59
2022/03/21 10:36:32;;;;;;;11.60;10.37;;;;;;;;;;5064622;28;20682;-59
2022/03/21 10:39:11;;;;;;;12.03;10.47;;;;;;;;;;5078490;28;20236;-59
2022/03/21 10:41:39;;;;;;;13.97;11.97;;;;;;;;;;5084017;28;20179;-59
2022/03/21 10:44:06;;;;;;;14.73;11.37;;;;;;;;;;5089489;28;20689;-59
2022/03/21 10:46:32;;;;;;;12.27;10.10;;;;;;;;;;5083634;28;20570;-59
2022/03/21 10:49:02;;;;;;;12.87;11.23;;;;;;;;;;5076725;28;20215;-59
2022/03/21 10:51:46;;;;;;;10.77;9.53;;;;;;;;;;5080048;28;20212;-59
2022/03/21 10:54:32;;;;;;;12.37;11.03;;;;;;;;;;5086531;28;20187;-59
2022/03/21 10:56:58;;;;;;;13.70;11.37;;;;;;;;;;5085474;28;20609;-59
2022/03/21 10:59:24;;;;;;;13.27;10.67;;;;;;;;;;5084532;28;20188;-59
2022/03/21 11:01:50;;;;;;;14.50;10.70;;;;;;;;;;5083082;28;20815;-59
2022/03/21 11:04:17;;;;;;;15.43;11.70;;;;;;;;;;5083139;28;20305;-59
2022/03/21 11:06:44;;;;;;;13.13;11.13;;;;;;;;;;5064226;28;20629;-59
2022/03/21 11:09:10;;;;;;;12.13;10.83;;;;;;;;;;5081522;28;20400;-59
2022/03/21 11:11:37;;;;;;;14.63;11.87;;;;;;;;;;5078328;28;20254;-58
2022/03/21 11:14:03;;;;;;;14.40;10.77;;;;;;;;;;5089535;28;20706;-59
2022/03/21 11:16:29;;;;;;;13.40;11.23;;;;;;;;;;5084706;28;20250;-59
2022/03/21 11:18:57;;;;;;;13.83;11.27;;;;;;;;;;5088997;28;20217;-59
2022/03/21 11:21:23;;;;;;;14.10;11.37;;;;;;;;;;5085217;28;20203;-59
2022/03/21 11:23:51;;;;;;;12.57;11.27;;;;;;;;;;5067424;28;20237;-60
2022/03/21 11:26:32;;;;;;;12.70;11.37;;;;;;;;;;5084267;28;20195;-58
2022/03/21 11:29:21;;;;;;;14.10;11.33;;;;;;;;;;5085936;28;20195;-59
2022/03/21 11:31:48;;;;;;;14.27;11.13;;;;;;;;;;5068493;28;20218;-58
2022/03/21 11:34:17;;;;;;;13.30;11.60;;;;;;;;;;5087636;28;20180;-59
2022/03/21 11:36:53;;;;;;;12.80;10.27;;;;;;;;;;5083274;28;20558;-59
2022/03/21 11:39:19;;;;;;;13.33;10.57;;;;;;;;;;5068931;28;20206;-59
2022/03/21 11:42:15;;;;;;;12.63;11.33;;;;;;;;;;5087679;28;20567;-59
2022/03/21 11:44:42;;;;;;;15.40;11.57;;;;;;;;;;5066996;28;20710;-59
2022/03/21 11:47:22;;;;;;;14.43;10.33;;;;;;;;;;5082861;28;20195;-59
2022/03/21 11:49:48;;;;;;;15.83;11.07;;;;;;;;;;5084381;28;20207;-59
2022/03/21 11:52:15;;;;;;;13.23;11.17;;;;;;;;;;5049248;28;20283;-59
2022/03/21 11:54:41;;;;;;;13.37;10.77;;;;;;;;;;5077383;28;20184;-59
2022/03/21 11:57:09;;;;;;;12.00;10.67;;;;;;;;;;5070297;28;20260;-59
2022/03/21 11:59:35;;;;;;;12.27;10.73;;;;;;;;;;5069799;28;20177;-59
2022/03/21 12:02:10;;;;;;;14.03;10.90;;;;;;;;;;5086721;28;20191;-59
2022/03/21 12:04:37;;;;;;;12.73;10.27;;;;;;;;;;5082068;28;20249;-59
2022/03/21 12:07:13;;;;;;;12.73;11.37;;;;;;;;;;5082591;28;20528;-59
2022/03/21 12:09:57;;;;;;;12.77;10.70;;;;;;;;;;5085261;28;20648;-59
2022/03/21 12:12:51;;;;;;;12.07;9.60;;;;;;;;;;5056496;28;20559;-59
2022/03/21 12:15:31;;;;;;;11.73;10.00;;;;;;;;;;5081696;28;20635;-59
2022/03/21 12:17:57;;;;;;;12.27;10.87;;;;;;;;;;5075132;28;20198;-59
2022/03/21 12:20:24;;;;;;;11.37;10.17;;;;;;;;;;5088723;28;20275;-59
2022/03/21 12:22:52;;;;;;;12.50;10.70;;;;;;;;;;5081898;28;20726;-59
2022/03/21 12:25:20;;;;;;;14.07;10.00;;;;;;;;;;5086378;28;20185;-59
2022/03/21 12:27:56;;;;;;;10.33;9.23;;;;;;;;;;5091363;28;20203;-59
2022/03/21 12:30:32;;;;;;;13.80;10.27;;;;;;;;;;5087761;28;20874;-59
2022/03/21 12:33:05;;;;;;;12.47;10.63;;;;;;;;;;5087178;28;20171;-59
2022/03/21 12:35:31;;;;;;;11.38;9.88;;;;;;;;;;5081292;28;20421;-59
2022/03/21 12:38:21;;;;;;;11.57;10.03;;;;;;;;;;5089389;28;20546;-58
2022/03/21 12:40:50;;;;;;;11.93;9.47;;;;;;;;;;5077325;28;20225;-58
2022/03/21 12:43:30;;;;;;;12.60;9.27;;;;;;;;;;5095106;28;20175;-59
2022/03/21 12:46:06;;;;;;;13.47;9.83;;;;;;;;;;5098273;28;20193;-58
2022/03/21 12:48:34;;;;;;;12.20;9.53;;;;;;;;;;5083388;28;20250;-58
2022/03/21 12:51:00;;;;;;;11.30;9.23;;;;;;;;;;5090471;28;20705;-58
2022/03/21 12:53:35;;;;;;;11.13;9.13;;;;;;;;;;5076238;28;20641;-58
2022/03/21 12:56:03;;;;;;;11.30;9.13;;;;;;;;;;5064209;28;20176;-58
2022/03/21 12:58:29;;;;;;;11.20;9.37;;;;;;;;;;5087057;28;20205;-58
2022/03/21 13:01:00;;;;;;;11.93;9.40;;;;;;;;;;5071387;28;20175;-58
2022/03/21 13:03:26;;;;;;;12.90;9.33;;;;;;;;;;5088855;28;20267;-59
2022/03/21 13:10:32;;;;;;;12.20;9.10;;;;;;;;;;5081350;28;20192;-59
2022/03/21 13:11:50;;;;;;;9.57;8.60;;;;;;;;;;5078027;28;20281;-59
2022/03/21 13:14:20;;;;;;;10.13;8.73;;;;;;;;;;5073466;28;20670;-59
2022/03/21 13:16:46;;;;;;;10.27;8.07;;;;;;;;;;5063276;28;20180;-58
2022/03/21 13:19:20;;;;;;;9.83;8.53;;;;;;;;;;5081045;28;20178;-59
2022/03/21 13:21:52;;;;;;;9.70;8.70;;;;;;;;;;5081008;28;20697;-58
2022/03/21 13:24:54;;;;;;;13.30;9.43;;;;;;;;;;5077907;28;20185;-59
2022/03/21 13:27:20;;;;;;;11.07;8.63;;;;;;;;;;4972387;28;20266;-58
2022/03/21 13:29:51;;;;;;;9.77;8.47;;;;;;;;;;5064263;28;20193;-58
2022/03/21 13:32:18;;;;;;;11.57;8.60;;;;;;;;;;5081090;28;20251;-59
2022/03/21 13:34:51;;;;;;;15.60;8.90;;;;;;;;;;5086715;28;20444;-59
2022/03/21 13:37:19;;;;;;;9.50;7.73;;;;;;;;;;5085170;28;20642;-59
2022/03/21 13:39:59;;;;;;;9.03;7.57;;;;;;;;;;5081868;28;20180;-58
2022/03/21 13:42:25;;;;;;;8.73;7.70;;;;;;;;;;5078330;28;20179;-58
2022/03/21 13:44:53;;;;;;;14.97;9.03;;;;;;;;;;5088224;28;20190;-59
2022/03/21 13:47:19;;;;;;;11.00;7.87;;;;;;;;;;5079613;28;20524;-58
2022/03/21 13:49:53;;;;;;;8.87;7.97;;;;;;;;;;5071896;28;20176;-58
2022/03/21 13:52:38;;;;;;;12.10;8.80;;;;;;;;;;5082576;28;20653;-58
2022/03/21 13:55:04;;;;;;;11.07;7.53;;;;;;;;;;5060492;28;20183;-58
2022/03/21 13:57:31;;;;;;;11.57;7.83;;;;;;;;;;5087574;28;20206;-58
2022/03/21 14:00:00;;;;;;;8.70;6.83;;;;;;;;;;5059612;28;20191;-59
2022/03/21 14:02:29;;;;;;;7.57;6.80;;;;;;;;;;5067152;28;20186;-59
2022/03/21 14:04:57;;;;;;;7.23;6.53;;;;;;;;;;5062799;28;20629;-58
2022/03/21 14:07:32;;;;;;;10.13;7.20;;;;;;;;;;5078071;28;20704;-58
2022/03/21 14:09:58;;;;;;;8.83;6.67;;;;;;;;;;5087772;28;20202;-59
2022/03/21 14:12:30;;;;;;;7.83;7.03;;;;;;;;;;5078092;28;20251;-59
2022/03/21 14:14:56;;;;;;;8.00;7.20;;;;;;;;;;5087846;28;20247;-58
2022/03/21 14:17:23;;;;;;;9.30;7.60;;;;;;;;;;5069985;28;20291;-58
2022/03/21 14:19:49;;;;;;;9.23;8.27;;;;;;;;;;5074907;28;20238;-58
2022/03/21 14:22:16;;;;;;;8.63;6.97;;;;;;;;;;5087811;28;20192;-59
2022/03/21 14:24:42;;;;;;;11.27;7.60;;;;;;;;;;5086398;28;20206;-61
2022/03/21 14:27:08;;;;;;;12.83;7.20;;;;;;;;;;5086497;28;20238;-61
2022/03/21 14:29:35;;;;;;;8.10;6.90;;;;;;;;;;5089213;28;20191;-60
2022/03/21 14:32:01;;;;;;;8.37;7.57;;;;;;;;;;5068520;28;20835;-61
2022/03/21 14:34:27;;;;;;;7.67;6.87;;;;;;;;;;5089581;28;20780;-60
2022/03/21 14:36:54;;;;;;;10.50;7.00;;;;;;;;;;5087322;28;20179;-61
2022/03/21 14:39:20;;;;;;;13.30;7.93;;;;;;;;;;5086675;28;20694;-61
2022/03/21 14:41:46;;;;;;;9.93;8.18;;;;;;;;;;5085512;28;20393;-60
2022/03/21 14:44:14;;;;;;;9.90;7.43;;;;;;;;;;5068201;28;20594;-60
2022/03/21 14:46:40;;;;;;;10.27;6.87;;;;;;;;;;5061717;28;20179;-59
2022/03/21 14:49:06;;;;;;;9.43;7.10;;;;;;;;;;5072972;28;20232;-60
2022/03/21 14:51:37;;;;;;;8.67;7.77;;;;;;;;;;5086516;28;20745;-60
2022/03/21 14:54:04;;;;;;;10.47;7.53;;;;;;;;;;5086783;28;20219;-61
2022/03/21 14:56:32;;;;;;;9.20;7.53;;;;;;;;;;5083994;28;20200;-60
2022/03/21 14:58:58;;;;;;;11.03;7.90;;;;;;;;;;5083712;28;20263;-60
2022/03/21 15:01:26;;;;;;;12.77;9.53;;;;;;;;;;5067791;28;20208;-58